createdAt,value
2023-02-27T00:02:23.385Z,17.60
2023-02-27T00:04:52.380Z,17.60
2023-02-27T00:07:26.155Z,17.60
2023-02-27T00:09:54.890Z,17.60
2023-02-27T00:12:23.370Z,17.60
2023-02-27T00:14:52.227Z,17.50
2023-02-27T00:17:20.875Z,17.50
2023-02-27T00:19:49.712Z,17.50
2023-02-27T00:22:18.241Z,17.50
2023-02-27T00:24:47.651Z,17.50
2023-02-27T00:27:16.221Z,17.50
2023-02-27T00:29:47.738Z,17.50
2023-02-27T00:32:16.317Z,17.50
2023-02-27T00:34:45.107Z,17.40
2023-02-27T00:37:13.592Z,17.40
2023-02-27T00:39:42.553Z,17.40
2023-02-27T00:42:11.126Z,17.40
2023-02-27T00:44:41.022Z,17.40
2023-02-27T00:47:09.426Z,17.40
2023-02-27T00:49:38.489Z,17.40
2023-02-27T00:52:06.907Z,17.30
2023-02-27T00:54:35.904Z,17.30
2023-02-27T00:57:04.508Z,17.30
2023-02-27T00:59:33.514Z,17.30
2023-02-27T01:02:02.079Z,17.40
2023-02-27T01:04:30.920Z,17.30
2023-02-27T01:06:59.546Z,17.30
2023-02-27T01:09:28.840Z,17.30
2023-02-27T01:11:57.852Z,17.30
2023-02-27T01:14:27.306Z,17.30
2023-02-27T01:16:55.952Z,17.30
2023-02-27T01:19:25.688Z,17.20
2023-02-27T01:21:54.283Z,17.20
2023-02-27T01:24:23.614Z,17.20
2023-02-27T01:26:53.253Z,17.20
2023-02-27T01:29:22.248Z,17.20
2023-02-27T01:31:51.126Z,17.20
2023-02-27T01:34:21.017Z,17.20
2023-02-27T01:36:49.663Z,17.20
2023-02-27T01:39:18.557Z,17.20
2023-02-27T01:41:47.159Z,17.10
2023-02-27T01:44:16.084Z,17.20
2023-02-27T01:46:44.681Z,17.10
2023-02-27T01:49:22.251Z,17.10
2023-02-27T01:52:08.595Z,17.10
2023-02-27T01:54:40.793Z,17.10
2023-02-27T01:57:09.940Z,17.00
2023-02-27T01:59:40.709Z,17.00
2023-02-27T02:02:20.583Z,17.00
2023-02-27T02:04:49.520Z,17.00
2023-02-27T02:07:19.534Z,17.00
2023-02-27T02:09:55.405Z,17.00
2023-02-27T02:12:29.684Z,17.00
2023-02-27T02:14:58.463Z,17.00
2023-02-27T02:17:59.911Z,17.00
2023-02-27T02:21:27.547Z,17.00
2023-02-27T02:24:33.693Z,17.00
2023-02-27T02:27:45.620Z,17.00
2023-02-27T02:30:32.615Z,16.90
2023-02-27T02:33:45.082Z,16.90
2023-02-27T02:36:31.200Z,16.90
2023-02-27T02:39:16.489Z,16.90
2023-02-27T02:42:05.875Z,16.90
2023-02-27T02:44:51.650Z,16.90
2023-02-27T02:47:44.729Z,16.90
2023-02-27T02:50:27.677Z,16.90
2023-02-27T02:53:22.370Z,16.90
2023-02-27T02:55:53.700Z,16.90
2023-02-27T02:58:27.984Z,16.80
2023-02-27T03:01:12.066Z,16.90
2023-02-27T03:03:49.582Z,16.80
2023-02-27T03:06:35.334Z,16.80
2023-02-27T03:09:11.452Z,16.80
2023-02-27T03:11:42.476Z,16.80
2023-02-27T03:14:26.624Z,16.80
2023-02-27T03:16:56.243Z,16.80
2023-02-27T03:19:27.985Z,16.80
2023-02-27T03:22:05.832Z,16.80
2023-02-27T03:24:42.325Z,16.80
2023-02-27T03:27:11.378Z,16.80
2023-02-27T03:30:01.017Z,16.80
2023-02-27T03:32:46.170Z,16.80
2023-02-27T03:35:15.879Z,16.70
2023-02-27T03:37:48.566Z,16.80
2023-02-27T03:40:27.960Z,16.70
2023-02-27T03:43:47.931Z,16.70
2023-02-27T03:46:24.786Z,16.70
2023-02-27T03:48:53.637Z,16.70
2023-02-27T03:51:24.552Z,16.70
2023-02-27T03:54:11.569Z,16.70
2023-02-27T03:56:59.956Z,16.70
2023-02-27T03:59:29.196Z,16.70
2023-02-27T04:01:59.136Z,16.70
2023-02-27T04:04:32.145Z,16.60
2023-02-27T04:07:23.486Z,16.60
2023-02-27T04:10:26.576Z,16.60
2023-02-27T04:13:36.255Z,16.70
2023-02-27T04:16:29.703Z,16.70
2023-02-27T04:19:21.411Z,16.60
2023-02-27T04:22:31.375Z,16.60
2023-02-27T04:25:23.476Z,16.60
2023-02-27T04:28:14.206Z,16.60
2023-02-27T04:31:16.666Z,16.60
2023-02-27T04:33:55.021Z,16.60
2023-02-27T04:36:23.364Z,16.60
2023-02-27T04:39:24.466Z,16.60
2023-02-27T04:42:00.464Z,16.60
2023-02-27T04:44:30.693Z,16.60
2023-02-27T04:46:59.245Z,16.70
2023-02-27T04:49:37.933Z,16.70
2023-02-27T04:52:16.028Z,16.70
2023-02-27T04:55:27.677Z,16.70
2023-02-27T04:58:18.235Z,16.80
2023-02-27T05:01:13.757Z,16.90
2023-02-27T05:03:48.451Z,16.90
2023-02-27T05:06:18.416Z,17.00
2023-02-27T05:09:33.168Z,17.10
2023-02-27T05:12:33.574Z,17.20
2023-02-27T05:15:28.513Z,17.20
2023-02-27T05:18:07.296Z,17.30
2023-02-27T05:21:13.579Z,17.40
2023-02-27T05:23:50.504Z,17.50
2023-02-27T05:26:22.683Z,17.60
2023-02-27T05:29:45.220Z,17.60
2023-02-27T05:32:44.997Z,17.70
2023-02-27T05:35:47.646Z,17.80
2023-02-27T05:38:40.442Z,17.90
2023-02-27T05:41:58.533Z,18.00
2023-02-27T05:44:34.145Z,18.00
2023-02-27T05:47:08.513Z,18.10
2023-02-27T05:50:02.488Z,18.10
2023-02-27T05:52:31.351Z,18.20
2023-02-27T05:55:18.812Z,18.20
2023-02-27T05:57:59.684Z,18.30
2023-02-27T06:00:38.067Z,18.20
2023-02-27T06:03:06.940Z,18.20
2023-02-27T06:05:37.832Z,18.10
2023-02-27T06:08:06.678Z,18.10
2023-02-27T06:10:35.366Z,18.10
2023-02-27T06:13:04.396Z,18.10
2023-02-27T06:15:33.147Z,18.10
2023-02-27T06:18:01.947Z,18.00
2023-02-27T06:20:30.504Z,18.00
2023-02-27T06:22:59.423Z,18.00
2023-02-27T06:25:27.897Z,17.90
2023-02-27T06:27:57.090Z,17.90
2023-02-27T06:30:25.653Z,17.90
2023-02-27T06:32:55.073Z,17.80
2023-02-27T06:35:23.920Z,17.80
2023-02-27T06:37:52.715Z,17.70
2023-02-27T06:40:21.269Z,17.80
2023-02-27T06:42:50.208Z,17.70
2023-02-27T06:45:18.830Z,17.70
2023-02-27T06:47:47.787Z,17.70
2023-02-27T06:50:16.286Z,17.70
2023-02-27T06:52:45.129Z,17.60
2023-02-27T06:55:13.803Z,17.60
2023-02-27T06:57:42.734Z,17.60
2023-02-27T07:00:12.820Z,17.60
2023-02-27T07:02:41.745Z,17.60
2023-02-27T07:05:12.337Z,17.50
2023-02-27T07:07:41.304Z,17.50
2023-02-27T07:10:12.968Z,17.50
2023-02-27T07:12:42.157Z,17.50
2023-02-27T07:15:11.299Z,17.40
2023-02-27T07:17:40.196Z,17.40
2023-02-27T07:20:10.813Z,17.40
2023-02-27T07:22:40.673Z,17.40
2023-02-27T07:25:10.009Z,17.40
2023-02-27T07:27:38.980Z,17.40
2023-02-27T07:30:08.734Z,17.40
2023-02-27T07:32:37.633Z,17.40
2023-02-27T07:35:07.146Z,17.30
2023-02-27T07:37:35.964Z,17.30
2023-02-27T07:40:07.758Z,17.30
2023-02-27T07:42:36.560Z,17.30
2023-02-27T07:45:06.214Z,17.20
2023-02-27T07:47:35.528Z,17.20
2023-02-27T07:50:04.829Z,17.20
2023-02-27T07:52:34.123Z,17.20
2023-02-27T07:55:02.674Z,17.20
2023-02-27T07:57:31.879Z,17.20
2023-02-27T08:00:00.357Z,17.10
2023-02-27T08:02:29.223Z,17.10
2023-02-27T08:04:57.781Z,17.10
2023-02-27T08:07:26.814Z,17.10
2023-02-27T08:09:56.369Z,17.00
2023-02-27T08:12:25.359Z,17.00
2023-02-27T08:14:53.964Z,17.00
2023-02-27T08:17:22.880Z,17.00
2023-02-27T08:19:51.495Z,17.00
2023-02-27T08:22:21.017Z,17.00
2023-02-27T08:24:49.527Z,17.00
2023-02-27T08:27:18.467Z,17.00
2023-02-27T08:29:46.981Z,17.00
2023-02-27T08:32:15.910Z,16.90
2023-02-27T08:34:44.466Z,16.90
2023-02-27T08:37:13.366Z,16.90
2023-02-27T08:39:42.000Z,16.90
2023-02-27T08:42:10.921Z,16.90
2023-02-27T08:44:39.419Z,16.90
2023-02-27T08:47:08.470Z,16.90
2023-02-27T08:49:37.124Z,16.90
2023-02-27T08:52:06.097Z,16.90
2023-02-27T08:54:34.685Z,16.90
2023-02-27T08:57:04.493Z,16.90
2023-02-27T08:59:33.123Z,16.90
2023-02-27T09:02:02.131Z,16.90
2023-02-27T09:04:30.754Z,16.80
2023-02-27T09:06:59.655Z,16.80
2023-02-27T09:09:28.330Z,16.90
2023-02-27T09:11:57.547Z,16.80
2023-02-27T09:14:26.205Z,16.90
2023-02-27T09:16:55.276Z,16.80
2023-02-27T09:19:23.900Z,16.80
2023-02-27T09:21:53.217Z,16.80
2023-02-27T09:24:21.848Z,16.80
2023-02-27T09:26:51.339Z,16.80
2023-02-27T09:29:20.247Z,16.80
2023-02-27T09:31:49.296Z,16.80
2023-02-27T09:34:17.950Z,16.80
2023-02-27T09:36:47.124Z,16.80
2023-02-27T09:39:15.578Z,16.80
2023-02-27T09:42:02.568Z,16.80
2023-02-27T09:44:50.625Z,16.80
2023-02-27T09:47:35.939Z,16.80
2023-02-27T09:50:55.688Z,16.80
2023-02-27T09:53:41.876Z,16.80
2023-02-27T09:56:27.242Z,16.80
2023-02-27T09:59:37.399Z,16.80
2023-02-27T10:02:27.568Z,16.80
2023-02-27T10:05:31.484Z,16.80
2023-02-27T10:08:26.969Z,16.80
2023-02-27T10:11:04.440Z,16.70
2023-02-27T10:14:00.859Z,16.70
2023-02-27T10:16:30.509Z,16.80
2023-02-27T10:19:06.482Z,16.80
2023-02-27T10:21:38.748Z,16.80
2023-02-27T10:24:42.259Z,16.80
2023-02-27T10:27:15.175Z,16.80
2023-02-27T10:29:43.780Z,16.80
2023-02-27T10:32:13.887Z,16.80
2023-02-27T10:34:43.547Z,16.80
2023-02-27T10:37:15.612Z,16.80
2023-02-27T10:39:50.180Z,16.80
2023-02-27T10:42:19.280Z,16.90
2023-02-27T10:44:53.726Z,16.90
2023-02-27T10:47:26.156Z,17.00
2023-02-27T10:49:55.049Z,17.00
2023-02-27T10:52:23.932Z,17.00
2023-02-27T10:54:53.303Z,17.10
2023-02-27T10:57:33.415Z,17.20
2023-02-27T11:00:09.446Z,17.30
2023-02-27T11:02:43.498Z,17.30
2023-02-27T11:05:38.504Z,17.40
2023-02-27T11:08:28.632Z,17.50
2023-02-27T11:11:09.925Z,17.60
2023-02-27T11:13:43.609Z,17.70
2023-02-27T11:16:18.585Z,17.70
2023-02-27T11:18:49.243Z,17.80
2023-02-27T11:21:29.556Z,17.90
2023-02-27T11:24:07.120Z,18.00
2023-02-27T11:26:41.391Z,18.10
2023-02-27T11:29:19.157Z,18.20
2023-02-27T11:32:13.550Z,18.20
2023-02-27T11:34:48.768Z,18.20
2023-02-27T11:37:35.931Z,18.30
2023-02-27T11:40:16.668Z,18.40
2023-02-27T11:42:52.989Z,18.40
2023-02-27T11:46:04.732Z,18.50
2023-02-27T11:48:31.762Z,18.50
2023-02-27T11:51:26.110Z,18.50
2023-02-27T11:54:07.502Z,18.60
2023-02-27T11:57:16.121Z,18.50
2023-02-27T12:00:09.509Z,18.50
2023-02-27T12:03:13.864Z,18.50
2023-02-27T12:05:55.140Z,18.40
2023-02-27T12:08:56.057Z,18.40
2023-02-27T12:11:31.241Z,18.40
2023-02-27T12:14:21.634Z,18.40
2023-02-27T12:17:20.894Z,18.40
2023-02-27T12:20:08.218Z,18.40
2023-02-27T12:22:41.709Z,18.30
2023-02-27T12:25:24.177Z,18.30
2023-02-27T12:27:59.594Z,18.30
2023-02-27T12:30:32.285Z,18.30
2023-02-27T12:33:42.645Z,18.20
2023-02-27T12:36:13.332Z,18.20
2023-02-27T12:38:41.976Z,18.20
2023-02-27T12:41:41.945Z,18.20
2023-02-27T12:45:04.436Z,18.10
2023-02-27T12:48:03.552Z,18.10
2023-02-27T12:51:29.884Z,18.10
2023-02-27T12:54:18.057Z,18.10
2023-02-27T12:56:53.280Z,18.00
2023-02-27T12:59:52.253Z,18.00
2023-02-27T13:02:35.848Z,18.00
2023-02-27T13:05:37.997Z,18.00
2023-02-27T13:08:40.652Z,18.00
2023-02-27T13:11:37.237Z,17.90
2023-02-27T13:14:18.497Z,17.90
2023-02-27T13:17:20.869Z,17.90
2023-02-27T13:19:58.297Z,17.80
2023-02-27T13:23:08.068Z,17.90
2023-02-27T13:25:37.180Z,17.90
2023-02-27T13:28:09.289Z,17.80
2023-02-27T13:31:09.608Z,17.80
2023-02-27T13:34:00.552Z,17.70
2023-02-27T13:36:56.569Z,17.70
2023-02-27T13:39:47.386Z,17.70
2023-02-27T13:42:27.894Z,17.70
2023-02-27T13:45:02.208Z,17.70
2023-02-27T13:47:31.343Z,17.70
2023-02-27T13:50:24.834Z,17.70
2023-02-27T13:52:53.801Z,17.60
2023-02-27T13:55:32.056Z,17.60
2023-02-27T13:58:01.263Z,17.60
2023-02-27T14:00:35.992Z,17.60
2023-02-27T14:03:19.614Z,17.50
2023-02-27T14:05:49.642Z,17.50
2023-02-27T14:08:30.005Z,17.50
2023-02-27T14:11:21.198Z,17.50
2023-02-27T14:13:54.939Z,17.40
2023-02-27T14:16:40.187Z,17.40
2023-02-27T14:19:18.090Z,17.40
2023-02-27T14:21:57.477Z,17.40
2023-02-27T14:25:01.562Z,17.40
2023-02-27T14:27:43.856Z,17.40
2023-02-27T14:30:44.805Z,17.30
2023-02-27T14:33:40.615Z,17.30
2023-02-27T14:36:19.432Z,17.30
2023-02-27T14:38:49.216Z,17.30
2023-02-27T14:41:33.359Z,17.30
2023-02-27T14:44:02.278Z,17.30
2023-02-27T14:46:39.219Z,17.30
2023-02-27T14:49:26.473Z,17.30
2023-02-27T14:51:55.127Z,17.30
2023-02-27T14:54:27.859Z,17.20
2023-02-27T14:57:01.584Z,17.30
2023-02-27T14:59:52.979Z,17.30
2023-02-27T15:02:29.372Z,17.30
2023-02-27T15:05:03.965Z,17.30
2023-02-27T15:07:34.010Z,17.20
2023-02-27T15:10:08.437Z,17.20
2023-02-27T15:12:40.217Z,17.20
2023-02-27T15:15:10.794Z,17.20
2023-02-27T15:17:44.366Z,17.20
2023-02-27T15:20:30.735Z,17.20
2023-02-27T15:23:01.724Z,17.10
2023-02-27T15:25:39.582Z,17.10
2023-02-27T15:28:22.655Z,17.10
2023-02-27T15:30:51.791Z,17.10
2023-02-27T15:33:22.274Z,17.00
2023-02-27T15:35:51.280Z,17.00
2023-02-27T15:38:31.492Z,17.00
2023-02-27T15:41:01.730Z,17.00
2023-02-27T15:43:30.240Z,17.00
2023-02-27T15:45:59.018Z,17.00
2023-02-27T15:48:27.713Z,17.00
2023-02-27T15:51:01.283Z,17.00
2023-02-27T15:53:31.056Z,16.90
2023-02-27T15:56:12.027Z,16.90
2023-02-27T15:58:51.709Z,16.90
2023-02-27T16:01:21.889Z,16.90
2023-02-27T16:03:55.637Z,16.90
2023-02-27T16:06:38.906Z,16.90
2023-02-27T16:09:24.964Z,16.90
2023-02-27T16:12:30.791Z,16.90
2023-02-27T16:15:20.730Z,16.90
2023-02-27T16:18:08.149Z,17.00
2023-02-27T16:20:48.773Z,17.00
2023-02-27T16:23:22.871Z,17.10
2023-02-27T16:26:27.573Z,17.10
2023-02-27T16:29:20.838Z,17.20
2023-02-27T16:31:55.190Z,17.30
2023-02-27T16:34:45.754Z,17.40
2023-02-27T16:37:23.347Z,17.40
2023-02-27T16:39:52.456Z,17.50
2023-02-27T16:42:21.315Z,17.60
2023-02-27T16:44:50.071Z,17.70
2023-02-27T16:47:18.660Z,17.70
2023-02-27T16:49:49.628Z,17.80
2023-02-27T16:52:18.242Z,17.90
2023-02-27T16:54:46.940Z,18.00
2023-02-27T16:57:16.857Z,18.00
2023-02-27T16:59:45.657Z,18.10
2023-02-27T17:02:15.389Z,18.20
2023-02-27T17:04:47.032Z,18.30
2023-02-27T17:07:17.002Z,18.40
2023-02-27T17:09:46.386Z,18.40
2023-02-27T17:12:15.120Z,18.50
2023-02-27T17:14:44.022Z,18.60
2023-02-27T17:17:12.531Z,18.60
2023-02-27T17:19:41.328Z,18.70
2023-02-27T17:22:09.780Z,18.70
2023-02-27T17:24:39.132Z,18.80
2023-02-27T17:27:07.748Z,18.80
2023-02-27T17:29:38.699Z,18.90
2023-02-27T17:32:07.191Z,19.00
2023-02-27T17:34:36.068Z,19.00
2023-02-27T17:37:04.541Z,18.90
2023-02-27T17:39:33.710Z,19.00
2023-02-27T17:42:02.242Z,19.10
2023-02-27T17:44:31.075Z,19.10
2023-02-27T17:46:59.620Z,19.20
2023-02-27T17:54:29.777Z,19.20
2023-02-27T17:56:58.590Z,19.40
2023-02-27T17:59:27.546Z,19.50
2023-02-27T18:01:56.098Z,19.50
2023-02-27T18:04:25.490Z,19.60
2023-02-27T18:06:54.192Z,19.60
2023-02-27T18:09:24.592Z,19.50
2023-02-27T18:11:53.578Z,19.50
2023-02-27T18:14:22.606Z,19.50
2023-02-27T18:16:51.314Z,19.40
2023-02-27T18:19:20.293Z,19.40
2023-02-27T18:21:48.906Z,19.40
2023-02-27T18:24:17.899Z,19.30
2023-02-27T18:26:46.489Z,19.30
2023-02-27T18:29:16.405Z,19.20
2023-02-27T18:31:46.238Z,19.10
2023-02-27T18:34:15.202Z,19.10
2023-02-27T18:36:43.969Z,19.10
2023-02-27T18:39:12.886Z,19.00
2023-02-27T18:41:41.469Z,18.90
2023-02-27T18:44:11.323Z,18.90
2023-02-27T18:46:40.477Z,18.90
2023-02-27T18:49:09.540Z,18.90
2023-02-27T18:51:38.218Z,18.80
2023-02-27T18:54:07.313Z,18.80
2023-02-27T18:56:35.893Z,18.80
2023-02-27T18:59:05.726Z,18.70
2023-02-27T19:01:36.980Z,18.70
2023-02-27T19:04:09.777Z,18.60
2023-02-27T19:06:43.324Z,18.60
2023-02-27T19:09:16.318Z,18.60
2023-02-27T19:11:47.019Z,18.70
2023-02-27T19:14:16.679Z,18.70
2023-02-27T19:16:46.317Z,18.80
2023-02-27T19:19:15.224Z,18.80
2023-02-27T19:21:44.444Z,18.90
2023-02-27T19:24:13.995Z,18.90
2023-02-27T19:26:42.605Z,18.90
2023-02-27T19:29:11.583Z,19.10
2023-02-27T19:31:40.120Z,19.10
2023-02-27T19:34:08.949Z,19.10
2023-02-27T19:36:37.630Z,19.10
2023-02-27T19:39:06.534Z,19.20
2023-02-27T19:41:35.149Z,19.10
2023-02-27T19:44:04.101Z,19.10
2023-02-27T19:46:34.235Z,19.10
2023-02-27T19:49:05.419Z,19.10
2023-02-27T19:51:34.345Z,19.00
2023-02-27T19:54:03.262Z,19.00
2023-02-27T19:56:32.061Z,19.00
2023-02-27T19:59:01.757Z,19.00
2023-02-27T20:01:36.340Z,19.00
2023-02-27T20:04:06.300Z,19.00
2023-02-27T20:06:42.385Z,18.90
2023-02-27T20:09:14.763Z,18.90
2023-02-27T20:11:44.328Z,18.80
2023-02-27T20:14:14.726Z,18.80
2023-02-27T20:16:43.794Z,18.80
2023-02-27T20:19:15.135Z,18.80
2023-02-27T20:21:44.826Z,18.70
2023-02-27T20:24:14.884Z,18.70
2023-02-27T20:26:48.937Z,18.70
2023-02-27T20:29:21.925Z,18.70
2023-02-27T20:31:53.051Z,18.60
2023-02-27T20:34:26.635Z,18.60
2023-02-27T20:36:56.083Z,18.60
2023-02-27T20:39:25.911Z,18.60
2023-02-27T20:41:55.312Z,18.60
2023-02-27T20:44:25.016Z,18.70
2023-02-27T20:46:54.320Z,18.80
2023-02-27T20:49:23.784Z,18.80
2023-02-27T20:51:53.077Z,18.80
2023-02-27T20:54:22.470Z,18.90
2023-02-27T20:56:55.091Z,19.00
2023-02-27T20:59:25.770Z,19.10
2023-02-27T21:01:55.387Z,19.10
2023-02-27T21:04:51.480Z,19.10
2023-02-27T21:07:23.904Z,19.10
2023-02-27T21:09:53.332Z,19.10
2023-02-27T21:12:22.469Z,19.10
2023-02-27T21:14:51.658Z,19.00
2023-02-27T21:17:20.480Z,19.00
2023-02-27T21:19:49.789Z,19.00
2023-02-27T21:22:18.698Z,18.90
2023-02-27T21:24:50.359Z,18.90
2023-02-27T21:27:21.626Z,18.90
2023-02-27T21:29:51.104Z,18.80
2023-02-27T21:32:19.963Z,18.80
2023-02-27T21:34:49.348Z,18.70
2023-02-27T21:37:18.216Z,18.70
2023-02-27T21:39:53.171Z,18.70
2023-02-27T21:42:22.512Z,18.60
2023-02-27T21:44:51.668Z,18.60
2023-02-27T21:47:21.095Z,18.60
2023-02-27T21:49:51.848Z,18.50
2023-02-27T21:52:20.765Z,18.50
2023-02-27T21:54:50.847Z,18.50
2023-02-27T21:57:21.845Z,18.50
2023-02-27T21:59:51.272Z,18.50
2023-02-27T22:02:20.178Z,18.60
2023-02-27T22:04:49.497Z,18.60
2023-02-27T22:07:18.356Z,18.70
2023-02-27T22:09:50.192Z,18.70
2023-02-27T22:12:18.972Z,18.80
2023-02-27T22:14:49.024Z,18.80
2023-02-27T22:17:17.967Z,18.70
2023-02-27T22:19:48.182Z,18.70
2023-02-27T22:22:17.167Z,18.70
2023-02-27T22:24:47.086Z,18.70
2023-02-27T22:27:16.234Z,18.60
2023-02-27T22:29:45.473Z,18.60
2023-02-27T22:32:14.465Z,18.60
2023-02-27T22:34:43.736Z,18.50
2023-02-27T22:37:14.024Z,18.50
2023-02-27T22:39:43.433Z,18.40
2023-02-27T22:42:12.316Z,18.40
2023-02-27T22:44:41.731Z,18.40
2023-02-27T22:47:11.333Z,18.30
2023-02-27T22:49:40.445Z,18.30
2023-02-27T22:52:09.483Z,18.30
2023-02-27T22:54:38.624Z,18.20
2023-02-27T22:57:07.408Z,18.20
2023-02-27T22:59:36.864Z,18.20
2023-02-27T23:02:06.839Z,18.20
2023-02-27T23:04:36.052Z,18.10
2023-02-27T23:07:04.879Z,18.10
2023-02-27T23:09:34.085Z,18.10
2023-02-27T23:12:04.664Z,18.10
2023-02-27T23:14:34.058Z,18.00
2023-02-27T23:17:02.921Z,18.00
2023-02-27T23:19:33.382Z,18.00
2023-02-27T23:22:02.241Z,18.00
2023-02-27T23:24:31.372Z,17.90
2023-02-27T23:27:00.472Z,18.00
2023-02-27T23:29:29.770Z,17.90
2023-02-27T23:31:58.611Z,17.90
2023-02-27T23:34:29.101Z,17.80
2023-02-27T23:37:00.373Z,17.90
2023-02-27T23:39:29.616Z,17.80
2023-02-27T23:41:58.350Z,17.80
2023-02-27T23:44:27.743Z,17.80
2023-02-27T23:46:56.554Z,17.80
2023-02-27T23:49:26.067Z,17.80
2023-02-27T23:51:54.889Z,17.70
2023-02-27T23:54:24.152Z,17.70
2023-02-27T23:56:53.043Z,17.70
2023-02-27T23:59:22.192Z,17.60
